Time;durP1;ratioP1;P1;durP2;ratioP2;P2;SDS_P1;SDS_P2;PMS_P1;PMS_P2;Temp;Humidity;BMP_temperature;BMP_pressure;BME280_temperature;BME280_humidity;BME280_pressure;Samples;Min_cycle;Max_cycle;Signal;HPM_P1;HPM_P2
2023/05/22 03:01:41;;;;;;;3.42;3.13;;;23.60;50.50;;;;;;5365731;23;45644;-59
2023/05/22 03:04:06;;;;;;;4.28;3.78;;;23.60;50.50;;;;;;4928681;28;45390;-58
2023/05/22 03:06:33;;;;;;;4.05;3.65;;;23.60;50.50;;;;;;4936655;28;46189;-59
2023/05/22 03:08:59;;;;;;;3.65;3.35;;;23.60;50.40;;;;;;4927238;28;45259;-59
2023/05/22 03:11:25;;;;;;;3.83;3.53;;;23.60;50.40;;;;;;4934262;28;45493;-58
2023/05/22 03:13:51;;;;;;;4.00;3.60;;;23.60;50.30;;;;;;4978582;28;45397;-59
2023/05/22 03:16:16;;;;;;;4.20;3.70;;;23.60;50.30;;;;;;4954037;28;45980;-59
2023/05/22 03:18:42;;;;;;;4.90;3.83;;;23.60;50.30;;;;;;4961507;28;46052;-59
2023/05/22 03:21:07;;;;;;;3.83;3.47;;;23.60;50.30;;;;;;4955344;28;46193;-59
2023/05/22 03:23:33;;;;;;;3.72;3.40;;;23.60;50.30;;;;;;4950407;28;45788;-59
2023/05/22 03:25:58;;;;;;;4.53;4.07;;;23.50;50.30;;;;;;4952875;28;45609;-58
2023/05/22 03:28:24;;;;;;;3.40;3.10;;;23.60;50.30;;;;;;4983398;28;45599;-58
2023/05/22 03:30:49;;;;;;;3.63;3.33;;;23.60;50.40;;;;;;4947955;28;45008;-59
2023/05/22 03:33:15;;;;;;;3.42;3.13;;;23.60;51.00;;;;;;4944048;28;46045;-59
2023/05/22 03:35:43;;;;;;;3.60;3.30;;;23.50;50.40;;;;;;4973026;28;45778;-59
2023/05/22 03:38:08;;;;;;;3.97;3.55;;;23.60;50.40;;;;;;4977814;28;45187;-59
2023/05/22 03:40:34;;;;;;;3.13;2.85;;;23.60;50.40;;;;;;4971879;28;45223;-59
2023/05/22 03:42:59;;;;;;;3.80;3.50;;;23.60;50.40;;;;;;4958541;28;45009;-58
2023/05/22 03:45:25;;;;;;;4.07;3.72;;;23.50;50.40;;;;;;4966109;28;45527;-59
2023/05/22 03:47:50;;;;;;;3.90;3.60;;;23.50;50.40;;;;;;4956165;28;44928;-59
2023/05/22 03:50:16;;;;;;;4.07;3.58;;;23.50;50.50;;;;;;4955269;28;45389;-58
2023/05/22 03:52:42;;;;;;;3.53;3.22;;;23.50;50.40;;;;;;4940069;28;45282;-58
2023/05/22 03:55:07;;;;;;;5.50;3.42;;;23.50;50.40;;;;;;4955852;28;45530;-59
2023/05/22 03:57:33;;;;;;;3.45;3.15;;;23.50;50.40;;;;;;4974105;28;45920;-59
2023/05/22 04:00:05;;;;;;;3.30;3.00;;;23.50;50.40;;;;;;4981368;28;45332;-59
2023/05/22 04:02:31;;;;;;;3.88;3.58;;;23.50;50.50;;;;;;4935102;28;45581;-59
2023/05/22 04:04:56;;;;;;;3.53;3.22;;;23.50;50.50;;;;;;4953641;28;45272;-59
2023/05/22 04:07:22;;;;;;;4.35;3.58;;;23.50;50.50;;;;;;4936377;28;45112;-57
2023/05/22 04:09:47;;;;;;;3.65;3.35;;;23.50;50.50;;;;;;4955535;28;46784;-60
2023/05/22 04:12:13;;;;;;;3.90;3.40;;;23.50;50.50;;;;;;4931560;28;45586;-60
2023/05/22 04:14:38;;;;;;;4.55;3.45;;;23.50;50.50;;;;;;4957257;28;46244;-58
2023/05/22 04:17:04;;;;;;;3.88;3.58;;;23.50;50.60;;;;;;4923569;28;45649;-59
2023/05/22 04:19:30;;;;;;;4.05;3.65;;;23.50;50.50;;;;;;4958860;28;45154;-59
2023/05/22 04:21:57;;;;;;;3.90;3.50;;;23.50;50.50;;;;;;4953970;28;45576;-60
2023/05/22 04:24:22;;;;;;;3.15;2.90;;;23.50;50.60;;;;;;4926870;28;45651;-59
2023/05/22 04:26:48;;;;;;;3.70;3.40;;;23.50;50.50;;;;;;4950777;28;45198;-59
2023/05/22 04:29:15;;;;;;;3.85;3.53;;;23.50;50.60;;;;;;4930223;28;45325;-58
2023/05/22 04:31:41;;;;;;;3.97;3.58;;;23.50;50.60;;;;;;4930754;28;44964;-58
2023/05/22 04:34:13;;;;;;;3.90;3.50;;;23.50;50.60;;;;;;4924762;28;45402;-59
2023/05/22 04:36:39;;;;;;;3.13;2.83;;;23.50;50.60;;;;;;4932427;28;45520;-58
2023/05/22 04:39:04;;;;;;;3.15;2.85;;;23.50;50.60;;;;;;4955392;28;45509;-59
2023/05/22 04:41:31;;;;;;;3.67;3.38;;;23.50;50.60;;;;;;4933126;28;45564;-59
2023/05/22 04:43:57;;;;;;;3.63;3.33;;;23.50;50.60;;;;;;4959140;28;45641;-60
2023/05/22 04:46:22;;;;;;;4.05;3.63;;;23.50;50.60;;;;;;4932415;28;45244;-59
2023/05/22 04:48:48;;;;;;;3.60;3.30;;;23.50;50.60;;;;;;4955094;28;45514;-60
2023/05/22 04:51:14;;;;;;;3.40;3.10;;;23.50;50.60;;;;;;4932613;28;45415;-59
2023/05/22 04:53:39;;;;;;;3.20;2.90;;;23.50;50.60;;;;;;4908139;28;46766;-59
2023/05/22 04:56:06;;;;;;;3.13;2.83;;;23.50;50.60;;;;;;4933398;28;45473;-58
2023/05/22 04:58:31;;;;;;;3.67;3.38;;;23.50;50.60;;;;;;4956162;28;44852;-59
2023/05/22 05:00:57;;;;;;;3.60;3.30;;;23.50;51.20;;;;;;4953081;28;45532;-58
2023/05/22 05:03:26;;;;;;;3.20;2.90;;;23.50;50.60;;;;;;4960656;28;47091;-58
2023/05/22 05:05:51;;;;;;;3.58;3.20;;;23.50;50.60;;;;;;4961798;28;45470;-59
2023/05/22 05:08:17;;;;;;;3.42;3.08;;;23.50;50.60;;;;;;4965302;28;45249;-58
2023/05/22 05:10:42;;;;;;;3.38;3.08;;;23.50;51.20;;;;;;4953117;28;45663;-58
2023/05/22 05:13:08;;;;;;;3.75;3.45;;;23.50;50.60;;;;;;4926598;28;46695;-58
2023/05/22 05:15:33;;;;;;;3.95;3.38;;;23.50;50.60;;;;;;4942743;28;45295;-58
2023/05/22 05:17:59;;;;;;;3.63;3.33;;;23.50;50.60;;;;;;4966636;28;45649;-58
2023/05/22 05:20:26;;;;;;;3.30;3.00;;;23.50;50.60;;;;;;4977863;28;45135;-59
2023/05/22 05:22:51;;;;;;;3.55;3.22;;;23.50;50.60;;;;;;4961066;28;45740;-60
2023/05/22 05:25:17;;;;;;;3.50;3.15;;;23.50;50.60;;;;;;4958224;28;45475;-60
2023/05/22 05:27:42;;;;;;;3.72;3.42;;;23.50;50.60;;;;;;4957584;28;45868;-59
2023/05/22 05:30:09;;;;;;;3.65;3.35;;;23.50;50.60;;;;;;4955095;28;45706;-58
2023/05/22 05:32:35;;;;;;;3.17;2.90;;;23.50;50.60;;;;;;4972614;28;46960;-59
2023/05/22 05:35:00;;;;;;;3.47;3.17;;;23.50;50.60;;;;;;4963504;28;45453;-59
2023/05/22 05:37:26;;;;;;;3.15;2.85;;;23.50;50.60;;;;;;4962274;28;44880;-58
2023/05/22 05:39:51;;;;;;;2.80;2.60;;;23.50;50.60;;;;;;4948371;28;45418;-58
2023/05/22 05:42:17;;;;;;;3.33;3.03;;;23.50;50.60;;;;;;4960457;28;46206;-59
2023/05/22 05:44:43;;;;;;;2.83;2.63;;;23.50;50.60;;;;;;4966623;28;45664;-58
2023/05/22 05:47:08;;;;;;;2.97;2.67;;;23.50;50.60;;;;;;4974253;28;46419;-59
2023/05/22 05:49:34;;;;;;;2.90;2.70;;;23.50;50.70;;;;;;4982759;28;45365;-59
2023/05/22 05:51:59;;;;;;;3.08;2.78;;;23.50;50.70;;;;;;4960967;28;45470;-58
2023/05/22 05:54:25;;;;;;;3.83;3.42;;;23.50;50.60;;;;;;4986151;28;45200;-57
2023/05/22 05:56:51;;;;;;;3.58;3.28;;;23.60;50.60;;;;;;4976628;28;45235;-57
2023/05/22 05:59:17;;;;;;;4.90;3.67;;;23.60;50.30;;;;;;4953128;28;45239;-57
2023/05/22 06:01:44;;;;;;;4.93;3.90;;;23.70;50.20;;;;;;4974202;28;46531;-57
2023/05/22 06:04:10;;;;;;;3.80;3.50;;;23.70;50.10;;;;;;4946865;28;45413;-57
2023/05/22 06:06:38;;;;;;;4.40;4.00;;;23.70;50.00;;;;;;4949879;28;45142;-58
2023/05/22 06:09:06;;;;;;;4.45;3.90;;;23.80;50.00;;;;;;4978735;28;44791;-57
2023/05/22 06:11:32;;;;;;;4.80;4.15;;;23.80;49.90;;;;;;4961832;28;45349;-57
2023/05/22 06:14:01;;;;;;;3.70;3.30;;;23.90;49.90;;;;;;4965720;28;45605;-56
2023/05/22 06:16:27;;;;;;;4.40;3.92;;;23.90;49.80;;;;;;4960841;28;44901;-56
2023/05/22 06:18:53;;;;;;;3.95;3.55;;;23.90;49.80;;;;;;4935037;28;45762;-59
2023/05/22 06:21:21;;;;;;;4.43;3.85;;;23.90;49.80;;;;;;4973541;28;45326;-59
2023/05/22 06:23:48;;;;;;;6.47;4.30;;;23.90;49.70;;;;;;4982629;28;45547;-57
2023/05/22 06:26:14;;;;;;;5.18;4.55;;;24.00;49.60;;;;;;4964185;28;45479;-57
2023/05/22 06:28:39;;;;;;;5.10;4.60;;;24.00;49.30;;;;;;4986978;28;45149;-57
2023/05/22 06:31:05;;;;;;;6.03;4.57;;;24.00;49.90;;;;;;4952924;28;45467;-55
2023/05/22 06:33:30;;;;;;;10.88;5.43;;;24.00;49.30;;;;;;4985153;28;45174;-59
2023/05/22 06:35:56;;;;;;;5.53;4.97;;;24.00;49.00;;;;;;4957355;28;45297;-59
2023/05/22 06:38:22;;;;;;;10.02;5.47;;;24.10;48.90;;;;;;4986527;28;45707;-59
2023/05/22 06:40:47;;;;;;;6.13;5.22;;;24.10;49.00;;;;;;4957698;28;45344;-58
2023/05/22 06:43:12;;;;;;;6.82;5.20;;;24.20;48.80;;;;;;4985399;28;45414;-57
2023/05/22 06:45:38;;;;;;;8.73;5.50;;;24.20;48.50;;;;;;4957879;28;45286;-59
2023/05/22 06:48:04;;;;;;;7.97;5.65;;;24.20;48.50;;;;;;4985534;28;45335;-60
2023/05/22 06:50:30;;;;;;;6.85;5.50;;;24.30;48.50;;;;;;4964012;28;45194;-60
2023/05/22 06:52:55;;;;;;;8.27;5.95;;;24.30;48.30;;;;;;4967778;28;45170;-59
2023/05/22 06:55:22;;;;;;;6.90;6.03;;;24.30;48.20;;;;;;4974925;28;45494;-57
2023/05/22 06:57:47;;;;;;;6.65;5.93;;;24.40;48.20;;;;;;4984829;28;45542;-61
2023/05/22 07:00:14;;;;;;;7.38;5.57;;;24.40;48.10;;;;;;4950893;28;45974;-62
2023/05/22 07:02:39;;;;;;;6.78;5.80;;;24.40;48.10;;;;;;4946095;28;45603;-59
2023/05/22 07:05:05;;;;;;;8.30;6.05;;;24.40;48.00;;;;;;4944340;28;45509;-59
2023/05/22 07:07:31;;;;;;;6.57;5.88;;;24.50;48.00;;;;;;4925020;28;45236;-59
2023/05/22 07:09:58;;;;;;;8.85;5.55;;;24.50;47.90;;;;;;4964202;28;47295;-58
2023/05/22 07:12:25;;;;;;;6.43;5.10;;;24.50;47.90;;;;;;4956800;28;45186;-57
2023/05/22 07:14:53;;;;;;;8.02;5.65;;;24.60;47.90;;;;;;4943476;28;45296;-57
2023/05/22 07:17:20;;;;;;;7.85;6.30;;;24.70;47.70;;;;;;4939086;28;45803;-58
2023/05/22 07:19:46;;;;;;;7.88;5.50;;;24.70;47.70;;;;;;4930648;28;46531;-60
2023/05/22 07:22:12;;;;;;;7.32;5.80;;;24.70;47.60;;;;;;4943230;28;45551;-60
2023/05/22 07:24:37;;;;;;;9.55;6.20;;;24.70;47.70;;;;;;4940828;28;45312;-60
2023/05/22 07:27:03;;;;;;;6.38;5.60;;;24.80;47.70;;;;;;4943141;28;45319;-59
2023/05/22 07:29:29;;;;;;;8.85;6.13;;;24.80;47.60;;;;;;4948746;28;46393;-59
2023/05/22 07:31:54;;;;;;;9.68;5.90;;;24.80;47.60;;;;;;4933009;28;45477;-59
2023/05/22 07:34:21;;;;;;;10.05;5.93;;;24.80;47.50;;;;;;4943638;28;45757;-58
2023/05/22 07:36:46;;;;;;;6.45;5.45;;;24.90;47.50;;;;;;4939527;28;45192;-60
2023/05/22 07:39:12;;;;;;;8.63;5.97;;;24.90;47.50;;;;;;4946777;28;46001;-61
2023/05/22 07:41:38;;;;;;;9.70;5.55;;;24.90;47.50;;;;;;4962132;28;46126;-59
2023/05/22 07:44:04;;;;;;;7.75;5.55;;;24.90;47.40;;;;;;4964500;28;45604;-60
2023/05/22 07:46:29;;;;;;;7.80;5.20;;;25.00;47.40;;;;;;4936216;28;45202;-60
2023/05/22 07:48:55;;;;;;;9.98;5.75;;;25.00;47.40;;;;;;4962451;28;46215;-61
2023/05/22 07:51:20;;;;;;;7.25;5.28;;;25.00;47.40;;;;;;4929195;28;45397;-62
2023/05/22 07:53:46;;;;;;;5.75;5.18;;;25.00;47.30;;;;;;4950416;28;45372;-61
2023/05/22 07:56:12;;;;;;;7.72;5.78;;;25.00;47.30;;;;;;4961259;28;45622;-57
2023/05/22 07:58:38;;;;;;;6.55;5.40;;;25.10;47.20;;;;;;4961519;28;46757;-61
2023/05/22 08:01:05;;;;;;;6.05;5.35;;;25.10;47.10;;;;;;4935599;28;45600;-67
2023/05/22 08:03:31;;;;;;;7.45;6.18;;;25.10;47.20;;;;;;4963752;28;45450;-61
2023/05/22 08:05:56;;;;;;;6.75;5.40;;;25.10;47.20;;;;;;4939698;28;45659;-60
2023/05/22 08:08:22;;;;;;;8.15;5.85;;;25.10;47.20;;;;;;4963078;28;46016;-62
2023/05/22 08:10:48;;;;;;;7.07;5.57;;;25.20;47.20;;;;;;4955802;28;45532;-61
2023/05/22 08:13:15;;;;;;;8.73;5.60;;;25.20;47.10;;;;;;4967144;28;45294;-63
2023/05/22 08:15:41;;;;;;;6.93;4.95;;;25.20;47.10;;;;;;4953913;28;45441;-64
2023/05/22 08:18:06;;;;;;;7.03;5.45;;;25.20;47.00;;;;;;4962261;28;46315;-62
2023/05/22 08:20:32;;;;;;;6.43;5.05;;;25.30;47.10;;;;;;4941126;28;47167;-61
2023/05/22 08:22:58;;;;;;;7.55;5.57;;;25.30;47.00;;;;;;4946047;28;45273;-63
2023/05/22 08:25:23;;;;;;;9.55;6.03;;;25.40;47.10;;;;;;4956568;28;45460;-62
2023/05/22 08:27:49;;;;;;;7.15;5.35;;;25.40;47.00;;;;;;4961873;28;45672;-63
2023/05/22 08:30:14;;;;;;;6.82;5.50;;;25.40;46.80;;;;;;4957049;28;46196;-63
2023/05/22 08:32:40;;;;;;;6.50;5.80;;;25.40;46.90;;;;;;4942995;28;44724;-63
2023/05/22 08:35:06;;;;;;;7.78;5.80;;;25.50;46.60;;;;;;4962586;28;44737;-69
2023/05/22 08:37:32;;;;;;;6.30;5.53;;;25.50;46.50;;;;;;4952444;28;46955;-61
2023/05/22 08:39:57;;;;;;;7.38;5.50;;;25.50;46.50;;;;;;4947990;28;45558;-59
2023/05/22 08:42:23;;;;;;;8.00;5.45;;;25.50;46.50;;;;;;4924256;28;45563;-59
2023/05/22 08:44:48;;;;;;;7.18;5.60;;;25.50;46.50;;;;;;4970644;28;45311;-61
2023/05/22 08:47:14;;;;;;;7.63;5.28;;;25.60;46.50;;;;;;4938488;28;45410;-63
2023/05/22 08:49:40;;;;;;;8.65;5.80;;;25.60;46.40;;;;;;4934390;28;46391;-64
2023/05/22 08:52:20;;;;;;;6.95;6.00;;;25.60;46.40;;;;;;4943119;28;44892;-60
2023/05/22 08:54:50;;;;;;;6.53;5.70;;;25.60;45.80;;;;;;4929780;28;45225;-69
2023/05/22 08:57:16;;;;;;;6.22;5.50;;;25.60;46.00;;;;;;4934596;28;45571;-60
2023/05/22 08:59:42;;;;;;;7.65;5.18;;;25.70;46.10;;;;;;4966439;28;44826;-60
2023/05/22 09:02:07;;;;;;;10.00;5.97;;;25.70;46.00;;;;;;4921632;28;45204;-63
2023/05/22 09:04:33;;;;;;;7.97;5.22;;;25.70;45.90;;;;;;4937707;28;45447;-63
2023/05/22 09:07:04;;;;;;;9.85;6.13;;;25.70;45.90;;;;;;4961158;28;45364;-63
2023/05/22 09:09:31;;;;;;;7.28;5.60;;;25.70;45.80;;;;;;4966411;28;45131;-63
2023/05/22 09:11:57;;;;;;;6.10;5.07;;;25.80;45.90;;;;;;4941925;28;45244;-64
2023/05/22 09:14:24;;;;;;;7.13;5.82;;;25.80;45.70;;;;;;4932209;28;45117;-64
2023/05/22 09:16:51;;;;;;;8.18;5.70;;;25.80;45.50;;;;;;4936790;28;45551;-62
2023/05/22 09:19:17;;;;;;;9.70;5.57;;;25.80;45.50;;;;;;4945066;28;45320;-58
2023/05/22 09:21:46;;;;;;;6.22;5.60;;;25.80;45.60;;;;;;4964937;28;44726;-61
2023/05/22 09:24:11;;;;;;;5.93;5.07;;;25.80;45.60;;;;;;4969308;28;45531;-61
2023/05/22 09:26:37;;;;;;;6.70;5.93;;;25.90;45.50;;;;;;4939553;28;45481;-62
2023/05/22 09:29:04;;;;;;;7.18;6.07;;;25.90;45.50;;;;;;4965251;28;45597;-61
2023/05/22 09:31:30;;;;;;;9.40;5.70;;;25.90;45.50;;;;;;4933374;28;45469;-59
2023/05/22 09:33:56;;;;;;;8.45;5.78;;;26.00;45.40;;;;;;4959195;28;45517;-64
2023/05/22 09:36:21;;;;;;;8.20;5.38;;;26.00;45.50;;;;;;4941182;28;45351;-61
2023/05/22 09:38:47;;;;;;;6.22;5.43;;;26.00;45.30;;;;;;4944419;28;45425;-63
2023/05/22 09:41:12;;;;;;;9.00;5.90;;;26.00;45.30;;;;;;4957626;28;45699;-66
2023/05/22 09:43:38;;;;;;;12.88;5.60;;;26.00;45.10;;;;;;4946462;28;44922;-63
2023/05/22 09:46:04;;;;;;;6.45;5.50;;;26.00;45.20;;;;;;4939135;28;45308;-60
2023/05/22 09:48:34;;;;;;;7.28;5.38;;;26.10;45.30;;;;;;4966754;28;45399;-62
2023/05/22 09:51:00;;;;;;;6.05;5.45;;;26.10;44.90;;;;;;4940045;28;45260;-60
2023/05/22 09:53:29;;;;;;;6.45;5.53;;;26.10;45.00;;;;;;4938435;28;46175;-62
2023/05/22 09:55:56;;;;;;;10.15;5.53;;;26.20;45.10;;;;;;4939918;28;45369;-60
2023/05/22 09:58:22;;;;;;;7.72;5.43;;;26.10;44.90;;;;;;4959418;28;45326;-63
2023/05/22 10:00:48;;;;;;;6.22;5.22;;;26.20;44.80;;;;;;4937273;28;45613;-64
2023/05/22 10:03:16;;;;;;;9.15;5.35;;;26.10;44.80;;;;;;4937406;28;45776;-60
2023/05/22 10:05:49;;;;;;;6.38;5.72;;;26.20;44.80;;;;;;4948244;28;46464;-61
2023/05/22 10:08:17;;;;;;;6.95;5.88;;;26.20;44.70;;;;;;4968472;28;45276;-60
2023/05/22 10:10:46;;;;;;;5.80;5.03;;;26.30;44.80;;;;;;4945811;28;45508;-61
2023/05/22 10:13:12;;;;;;;9.80;5.32;;;26.30;44.80;;;;;;4955161;28;45615;-59
2023/05/22 10:15:37;;;;;;;10.45;5.57;;;26.30;44.70;;;;;;4944800;28;45312;-60
2023/05/22 10:18:03;;;;;;;6.65;5.68;;;26.30;44.70;;;;;;4951863;28;45649;-59
2023/05/22 10:20:28;;;;;;;7.28;4.97;;;26.30;44.70;;;;;;4963870;28;45402;-58
2023/05/22 10:22:54;;;;;;;6.57;5.68;;;26.40;44.80;;;;;;4983239;28;44769;-60
2023/05/22 10:25:22;;;;;;;6.70;5.55;;;26.40;44.80;;;;;;4985110;28;45386;-58
2023/05/22 10:27:50;;;;;;;8.80;5.22;;;26.40;44.70;;;;;;4985505;28;45304;-60
2023/05/22 10:30:46;;;;;;;6.55;5.47;;;26.40;44.80;;;;;;4957208;28;45158;-59
2023/05/22 10:33:46;;;;;;;6.80;5.80;;;26.40;44.20;;;;;;4966787;28;45247;-58
2023/05/22 10:36:57;;;;;;;7.55;5.15;;;26.40;44.60;;;;;;4944066;28;45701;-57
2023/05/22 10:39:40;;;;;;;6.40;5.50;;;26.50;44.20;;;;;;4968888;28;45240;-58
2023/05/22 10:42:11;;;;;;;7.05;4.95;;;26.50;44.40;;;;;;4952846;28;45457;-57
2023/05/22 10:44:37;;;;;;;5.25;4.75;;;26.50;44.40;;;;;;4962214;28;45176;-58
2023/05/22 10:47:11;;;;;;;6.72;5.22;;;26.50;44.40;;;;;;4975027;28;45389;-58
2023/05/22 10:49:37;;;;;;;6.55;5.53;;;26.50;44.40;;;;;;4967306;28;45576;-58
2023/05/22 10:52:03;;;;;;;5.80;5.07;;;26.50;44.40;;;;;;4964246;28;45863;-59
2023/05/22 10:54:39;;;;;;;6.53;5.30;;;26.50;44.40;;;;;;4971893;28;45367;-59
2023/05/22 10:57:15;;;;;;;9.25;5.78;;;26.50;44.10;;;;;;4977898;28;45393;-60
2023/05/22 10:59:41;;;;;;;6.18;5.05;;;26.50;44.00;;;;;;4980202;28;45270;-61
2023/05/22 11:02:21;;;;;;;7.28;5.13;;;26.50;44.20;;;;;;4953597;28;45321;-60
2023/05/22 11:04:46;;;;;;;5.60;5.07;;;26.60;43.70;;;;;;4965373;28;45311;-60
2023/05/22 11:07:13;;;;;;;6.13;5.47;;;26.60;44.20;;;;;;4959892;28;45376;-59
2023/05/22 11:09:44;;;;;;;5.78;5.18;;;26.60;44.00;;;;;;4962084;28;46199;-60
2023/05/22 11:12:29;;;;;;;10.07;5.35;;;26.60;43.70;;;;;;4957293;28;46441;-62
2023/05/22 11:15:06;;;;;;;9.38;5.75;;;26.70;44.10;;;;;;4966053;28;45474;-59
2023/05/22 11:17:34;;;;;;;5.15;4.65;;;26.70;43.80;;;;;;4978017;28;45701;-64
2023/05/22 11:20:05;;;;;;;6.25;5.25;;;26.70;43.60;;;;;;4964819;28;45792;-59
2023/05/22 11:22:41;;;;;;;6.38;5.15;;;26.70;43.20;;;;;;4945756;28;45731;-59
2023/05/22 11:25:26;;;;;;;8.75;5.43;;;26.70;43.20;;;;;;4947208;28;45464;-68
2023/05/22 11:27:52;;;;;;;8.52;4.68;;;26.80;42.70;;;;;;4957313;28;46880;-57
2023/05/22 11:30:18;;;;;;;8.32;4.95;;;26.80;43.40;;;;;;4969731;28;45269;-69
2023/05/22 11:32:44;;;;;;;6.20;5.22;;;26.80;43.40;;;;;;4955081;28;45526;-60
2023/05/22 11:35:17;;;;;;;6.82;5.32;;;26.80;43.30;;;;;;4977290;28;45256;-60
2023/05/22 11:37:42;;;;;;;;;;;26.80;42.90;;;;;;4980842;28;45464;-59
2023/05/22 11:40:08;;;;;;;8.00;4.88;;;26.80;42.30;;;;;;4964898;28;45617;-61
2023/05/22 11:42:35;;;;;;;7.88;4.53;;;26.80;42.90;;;;;;4964930;28;44654;-61
2023/05/22 11:45:01;;;;;;;7.63;4.85;;;26.90;43.00;;;;;;4985342;28;44962;-61
2023/05/22 11:47:27;;;;;;;6.15;4.82;;;26.90;42.90;;;;;;4955646;28;46360;-65
2023/05/22 11:49:53;;;;;;;4.93;4.40;;;26.90;42.90;;;;;;4940057;28;45774;-60
2023/05/22 11:52:19;;;;;;;7.53;4.95;;;26.90;42.60;;;;;;4944406;28;45157;-58
2023/05/22 11:54:48;;;;;;;5.82;4.80;;;26.90;42.70;;;;;;4981950;28;44776;-60
2023/05/22 11:57:14;;;;;;;5.80;5.20;;;26.90;42.50;;;;;;4957333;28;45433;-57
2023/05/22 11:59:43;;;;;;;7.70;5.07;;;27.00;42.50;;;;;;4968877;28;44774;-58
2023/05/22 12:02:09;;;;;;;6.20;5.05;;;27.00;42.50;;;;;;4970649;28;45322;-59
2023/05/22 12:04:36;;;;;;;5.72;4.75;;;27.00;42.40;;;;;;4983689;28;45216;-59
2023/05/22 12:07:01;;;;;;;7.25;4.95;;;27.00;42.10;;;;;;4960965;28;46218;-59
2023/05/22 12:09:27;;;;;;;7.13;5.20;;;27.10;42.00;;;;;;4968855;28;45522;-57
2023/05/22 12:11:56;;;;;;;5.55;4.95;;;27.10;42.00;;;;;;4969445;28;45208;-59
2023/05/22 12:14:30;;;;;;;7.03;5.40;;;27.10;42.00;;;;;;4976354;28;45820;-59
2023/05/22 12:16:57;;;;;;;5.22;4.72;;;27.20;41.60;;;;;;4965038;28;46164;-57
2023/05/22 12:19:23;;;;;;;5.97;5.20;;;27.10;41.80;;;;;;4985022;28;45206;-63
2023/05/22 12:21:49;;;;;;;6.75;5.43;;;27.20;42.00;;;;;;4984845;28;45420;-57
2023/05/22 12:24:15;;;;;;;5.65;5.10;;;27.20;41.70;;;;;;4975098;28;45473;-61
2023/05/22 12:26:40;;;;;;;6.63;4.90;;;27.20;41.60;;;;;;4987049;28;46449;-61
2023/05/22 12:29:06;;;;;;;6.05;5.07;;;27.20;41.70;;;;;;4973475;28;45687;-64
2023/05/22 12:31:36;;;;;;;6.00;4.88;;;27.20;41.50;;;;;;4985238;28;45223;-61
2023/05/22 12:34:03;;;;;;;6.13;4.50;;;27.20;41.40;;;;;;4972786;28;45835;-63
2023/05/22 12:36:37;;;;;;;5.80;3.92;;;27.20;41.30;;;;;;4969547;28;45605;-64
2023/05/22 12:39:09;;;;;;;6.10;4.78;;;27.20;40.70;;;;;;4986631;28;45239;-64
2023/05/22 12:41:38;;;;;;;7.75;4.43;;;27.30;40.60;;;;;;4950343;28;45360;-64
2023/05/22 12:44:04;;;;;;;6.20;4.45;;;27.30;40.40;;;;;;4991230;28;45387;-61
2023/05/22 12:46:30;;;;;;;4.72;4.05;;;27.30;40.40;;;;;;4980453;28;45840;-59
2023/05/22 12:48:56;;;;;;;5.13;3.90;;;27.30;40.00;;;;;;4991737;28;45218;-60
2023/05/22 12:51:23;;;;;;;6.10;3.70;;;27.30;39.70;;;;;;4987792;28;45481;-58
2023/05/22 12:53:48;;;;;;;4.63;4.15;;;27.40;39.70;;;;;;4974063;28;45365;-63
2023/05/22 12:56:14;;;;;;;5.93;4.50;;;27.40;39.50;;;;;;4965736;28;45890;-61
2023/05/22 12:58:39;;;;;;;7.15;4.30;;;27.40;39.40;;;;;;4988350;28;45175;-58
2023/05/22 13:01:05;;;;;;;7.40;4.05;;;27.40;39.60;;;;;;4963319;28;45611;-60
2023/05/22 13:03:31;;;;;;;4.50;3.90;;;27.40;39.10;;;;;;4961309;28;45183;-59
2023/05/22 13:05:56;;;;;;;6.32;3.97;;;27.50;38.80;;;;;;4929968;28;47100;-60
2023/05/22 13:08:23;;;;;;;4.78;3.85;;;27.50;38.80;;;;;;4996162;28;45304;-57
2023/05/22 13:10:48;;;;;;;5.57;4.40;;;27.50;38.90;;;;;;4967681;28;44789;-65
2023/05/22 13:13:14;;;;;;;4.72;3.88;;;27.50;38.80;;;;;;4997252;28;44831;-60
2023/05/22 13:15:39;;;;;;;4.85;4.18;;;27.50;38.60;;;;;;4965241;28;45201;-70
2023/05/22 13:18:05;;;;;;;7.15;4.20;;;27.50;39.30;;;;;;4970877;28;45279;-60
2023/05/22 13:20:30;;;;;;;4.78;3.90;;;27.50;38.70;;;;;;4989019;28;45795;-62
2023/05/22 13:22:56;;;;;;;4.45;4.05;;;27.50;38.60;;;;;;4971254;28;45391;-58
2023/05/22 13:25:22;;;;;;;6.30;3.90;;;27.50;38.80;;;;;;4963575;28;47179;-63
2023/05/22 13:27:48;;;;;;;4.22;3.70;;;27.60;38.90;;;;;;4990894;28;45194;-59
2023/05/22 13:30:13;;;;;;;4.20;3.80;;;27.60;38.60;;;;;;4978249;28;45218;-60
2023/05/22 13:32:39;;;;;;;6.18;4.00;;;27.60;38.70;;;;;;4976182;28;46045;-57
2023/05/22 13:35:05;;;;;;;6.45;4.13;;;27.60;38.60;;;;;;4985867;28;45524;-70
2023/05/22 13:37:31;;;;;;;4.30;3.90;;;27.60;38.40;;;;;;4955225;28;45028;-60
2023/05/22 13:39:56;;;;;;;4.80;3.70;;;27.60;38.40;;;;;;4971922;28;45378;-60
2023/05/22 13:42:22;;;;;;;7.15;4.38;;;27.60;38.50;;;;;;4985200;28;44677;-58
2023/05/22 13:44:47;;;;;;;4.28;3.75;;;27.60;38.30;;;;;;4985285;28;46460;-60
2023/05/22 13:47:13;;;;;;;5.43;4.00;;;27.60;38.20;;;;;;4975783;28;46047;-58
2023/05/22 13:49:38;;;;;;;5.28;4.25;;;27.60;38.20;;;;;;4986072;28;45283;-65
2023/05/22 13:52:04;;;;;;;7.30;4.28;;;27.60;38.30;;;;;;4959696;28;45151;-61
2023/05/22 13:54:29;;;;;;;4.32;3.80;;;27.60;38.20;;;;;;4981356;28;46640;-64
2023/05/22 13:56:56;;;;;;;5.20;3.88;;;27.60;38.20;;;;;;4983793;28;45533;-55
2023/05/22 13:59:22;;;;;;;4.93;3.83;;;27.60;38.30;;;;;;4985967;28;45279;-62
2023/05/22 14:01:48;;;;;;;4.78;3.58;;;27.70;38.40;;;;;;4974135;28;45370;-63
2023/05/22 14:04:14;;;;;;;4.95;3.75;;;27.70;38.50;;;;;;4984080;28;45066;-61
2023/05/22 14:06:39;;;;;;;6.57;3.97;;;27.70;38.50;;;;;;4957200;28;45271;-60
2023/05/22 14:09:06;;;;;;;4.70;4.00;;;27.70;38.30;;;;;;4979006;28;45605;-59
2023/05/22 14:11:32;;;;;;;4.32;3.80;;;27.70;38.30;;;;;;4981073;28;46428;-63
2023/05/22 14:13:57;;;;;;;5.72;4.00;;;27.70;38.50;;;;;;4981134;28;45141;-53
2023/05/22 14:16:23;;;;;;;4.15;3.47;;;27.70;38.30;;;;;;4976038;28;45329;-62
2023/05/22 14:18:48;;;;;;;4.72;3.90;;;27.70;38.40;;;;;;4979615;28;45448;-64
2023/05/22 14:21:14;;;;;;;6.43;4.13;;;27.70;38.30;;;;;;4975583;28;45154;-63
2023/05/22 14:23:39;;;;;;;5.18;3.85;;;27.70;38.20;;;;;;4984124;28;45333;-58
2023/05/22 14:26:05;;;;;;;5.15;3.75;;;27.70;38.10;;;;;;4980370;28;45047;-61
2023/05/22 14:28:31;;;;;;;4.68;3.92;;;27.70;38.10;;;;;;4981975;28;45254;-62
2023/05/22 14:30:56;;;;;;;5.07;3.88;;;27.70;38.10;;;;;;4975738;28;45479;-61
2023/05/22 14:33:22;;;;;;;4.80;3.90;;;27.70;38.10;;;;;;4962010;28;46233;-64
2023/05/22 14:35:49;;;;;;;6.65;4.30;;;27.70;37.90;;;;;;4979901;28;45372;-54
2023/05/22 14:38:14;;;;;;;3.95;3.30;;;27.70;37.80;;;;;;4982049;28;45434;-61
2023/05/22 14:40:40;;;;;;;4.18;3.72;;;27.80;37.90;;;;;;4976775;28;46831;-59
2023/05/22 14:43:05;;;;;;;5.28;3.67;;;27.80;37.80;;;;;;4986859;28;46972;-57
2023/05/22 14:45:31;;;;;;;4.35;3.67;;;27.80;37.70;;;;;;4972365;28;45092;-56
2023/05/22 14:47:56;;;;;;;4.70;3.72;;;27.80;37.60;;;;;;4979123;28;45112;-62
2023/05/22 14:50:22;;;;;;;5.30;3.97;;;27.80;37.60;;;;;;4974839;28;46551;-60
2023/05/22 14:52:47;;;;;;;5.18;3.92;;;27.80;37.40;;;;;;4964991;28;45235;-58
2023/05/22 14:55:13;;;;;;;6.35;3.80;;;27.80;37.30;;;;;;4979311;28;45285;-58
2023/05/22 14:57:39;;;;;;;4.68;4.07;;;27.80;37.10;;;;;;4984052;28;45278;-57
2023/05/22 15:00:07;;;;;;;7.30;4.00;;;27.80;37.00;;;;;;4973653;28;45429;-63
2023/05/22 15:02:32;;;;;;;4.72;3.70;;;27.80;37.00;;;;;;4943639;28;45744;-60
2023/05/22 15:04:58;;;;;;;4.63;3.75;;;27.80;37.00;;;;;;4957768;28;45168;-60
2023/05/22 15:07:23;;;;;;;5.20;3.78;;;27.80;37.00;;;;;;4973554;28;45342;-58
2023/05/22 15:09:49;;;;;;;4.07;3.67;;;27.80;37.10;;;;;;4956501;28;45519;-61
2023/05/22 15:12:14;;;;;;;4.40;3.97;;;27.90;37.10;;;;;;4969732;28;45280;-61
2023/05/22 15:14:40;;;;;;;7.38;3.88;;;27.80;37.10;;;;;;4974008;28;45646;-58
2023/05/22 15:17:05;;;;;;;4.53;3.90;;;27.80;37.00;;;;;;4970918;28;45433;-62
2023/05/22 15:19:31;;;;;;;5.85;3.75;;;27.80;36.90;;;;;;4973798;28;45431;-58
2023/05/22 15:21:56;;;;;;;6.13;4.20;;;27.80;36.80;;;;;;4956621;28;47461;-55
2023/05/22 15:24:22;;;;;;;6.63;4.15;;;27.80;36.90;;;;;;4977647;28;44936;-55
2023/05/22 15:26:47;;;;;;;6.97;4.20;;;27.80;36.90;;;;;;4954772;28;45286;-54
2023/05/22 15:29:13;;;;;;;6.68;4.05;;;27.80;36.80;;;;;;4979310;28;45530;-63
2023/05/22 15:31:39;;;;;;;4.82;3.83;;;27.80;36.70;;;;;;4949195;28;46177;-61
2023/05/22 15:34:04;;;;;;;6.47;4.50;;;27.80;36.70;;;;;;4976739;28;45386;-58
2023/05/22 15:36:31;;;;;;;5.00;4.05;;;27.70;36.80;;;;;;4972518;28;45285;-61
2023/05/22 15:38:57;;;;;;;4.80;3.70;;;27.70;36.90;;;;;;4959792;28;45636;-57
2023/05/22 15:41:22;;;;;;;9.50;3.92;;;27.80;36.90;;;;;;4956688;28;46546;-60
2023/05/22 15:43:50;;;;;;;4.03;3.63;;;27.70;36.70;;;;;;4965042;28;45610;-61
2023/05/22 15:46:16;;;;;;;6.30;3.72;;;27.70;36.60;;;;;;4950255;28;45475;-61